Terminal Aerodrome Forecast
Issued by NWS

Home | Current Version | Previous Version | Text Only | Print | Product List | Glossary Off
Versions: 1 2 3 4 5 6 7 8 9 10 11 12 13 14

000
FTUS43 KMPX 210520
TAFAXN
TAF
KAXN 210520Z 2106/2206 33004KT P6SM BKN060
     FM210900 31002KT P6SM SCT060
      TEMPO 2109/2113 3SM BR
     FM211400 32006KT P6SM FEW035
     FM212200 02005KT P6SM SKC
     FM220200 12004KT P6SM SKC=

USA.gov is the U.S. government's official web portal to all federal, state and local government web resources and services.